Time;durP1;ratioP1;P1;durP2;ratioP2;P2;SDS_P1;SDS_P2;PMS_P1;PMS_P2;Temp;Humidity;BMP_temperature;BMP_pressure;BME280_temperature;BME280_humidity;BME280_pressure;Samples;Min_cycle;Max_cycle;Signal;HPM_P1;HPM_P2
2022/03/23 00:04:39;;;;;;;33.40;24.27;;;;;;;;;;10289258;28;20433;-91
2022/03/23 00:09:40;;;;;;;34.03;24.50;;;;;;;;;;10275609;28;20483;-90
2022/03/23 00:14:44;;;;;;;35.10;24.25;;;;;;;;;;10293646;28;20493;-91
2022/03/23 00:19:46;;;;;;;34.40;23.33;;;;;;;;;;10291654;28;20440;-90
2022/03/23 00:24:47;;;;;;;30.40;22.63;;;;;;;;;;10332250;28;20418;-91
2022/03/23 00:29:51;;;;;;;31.27;22.55;;;;;;;;;;10297711;28;20441;-89
2022/03/23 00:34:53;;;;;;;30.90;22.67;;;;;;;;;;10272695;28;20418;-91
2022/03/23 00:39:55;;;;;;;31.50;21.88;;;;;;;;;;10271663;28;20426;-91
2022/03/23 00:44:58;;;;;;;29.17;20.77;;;;;;;;;;10302396;28;20510;-90
2022/03/23 00:50:00;;;;;;;29.90;21.17;;;;;;;;;;10287358;28;20489;-91
2022/03/23 00:55:02;;;;;;;30.45;20.92;;;;;;;;;;10300242;28;20905;-90
2022/03/23 01:00:09;;;;;;;28.80;21.30;;;;;;;;;;10292309;28;20491;-89
2022/03/23 01:05:12;;;;;;;29.67;21.23;;;;;;;;;;10266676;28;20440;-90
2022/03/23 01:10:15;;;;;;;34.00;21.98;;;;;;;;;;10286897;28;20407;-90
2022/03/23 01:15:20;;;;;;;31.23;21.67;;;;;;;;;;10282609;28;20983;-90
2022/03/23 01:20:22;;;;;;;30.40;22.25;;;;;;;;;;10305886;28;20409;-89
2022/03/23 01:25:24;;;;;;;27.75;20.65;;;;;;;;;;10279833;28;20426;-91
2022/03/23 01:30:32;;;;;;;31.52;20.98;;;;;;;;;;10288219;28;20792;-90
2022/03/23 01:35:34;;;;;;;29.03;20.60;;;;;;;;;;10286362;28;20514;-89
2022/03/23 01:40:36;;;;;;;25.70;19.48;;;;;;;;;;10287463;28;20490;-90
2022/03/23 01:45:41;;;;;;;26.52;19.30;;;;;;;;;;10295443;28;20427;-87
2022/03/23 01:50:43;;;;;;;26.30;17.48;;;;;;;;;;10280367;28;20417;-90
2022/03/23 01:55:45;;;;;;;23.70;17.83;;;;;;;;;;10308056;28;20447;-90
2022/03/23 02:00:49;;;;;;;24.92;17.70;;;;;;;;;;10299620;28;20429;-89
2022/03/23 02:05:51;;;;;;;22.17;16.77;;;;;;;;;;10287379;28;20458;-90
2022/03/23 02:10:53;;;;;;;22.17;16.17;;;;;;;;;;10309826;28;20415;-89
2022/03/23 02:15:57;;;;;;;22.30;15.53;;;;;;;;;;10296291;28;20443;-89
2022/03/23 02:20:59;;;;;;;21.60;15.25;;;;;;;;;;10308399;28;20452;-90
2022/03/23 02:26:02;;;;;;;22.50;15.32;;;;;;;;;;10287053;28;20523;-90
2022/03/23 02:31:05;;;;;;;18.73;14.00;;;;;;;;;;10312090;28;20960;-90
2022/03/23 02:36:07;;;;;;;19.95;13.77;;;;;;;;;;10300083;28;20420;-88
2022/03/23 02:41:11;;;;;;;19.20;13.75;;;;;;;;;;10286015;28;20418;-88
2022/03/23 02:46:14;;;;;;;16.67;12.50;;;;;;;;;;10303854;28;20464;-89
2022/03/23 02:51:16;;;;;;;17.65;12.13;;;;;;;;;;10265848;28;20414;-88
2022/03/23 03:01:56;;;;;;;17.65;12.35;;;;;;;;;;10289695;28;20428;-90
2022/03/23 03:06:59;;;;;;;17.00;11.90;;;;;;;;;;10284045;28;20421;-90
2022/03/23 03:12:02;;;;;;;17.63;11.60;;;;;;;;;;10309083;28;20845;-90
2022/03/23 03:17:05;;;;;;;14.83;10.97;;;;;;;;;;10326391;28;20418;-89
2022/03/23 03:22:07;;;;;;;16.35;11.52;;;;;;;;;;10342435;28;20391;-88
2022/03/23 03:27:10;;;;;;;15.05;11.10;;;;;;;;;;10349531;28;20425;-89
2022/03/23 03:32:12;;;;;;;15.98;11.20;;;;;;;;;;10325934;28;20414;-90
2022/03/23 03:37:14;;;;;;;14.48;10.93;;;;;;;;;;10299246;28;20786;-90
2022/03/23 03:42:18;;;;;;;15.85;10.88;;;;;;;;;;10307343;28;20493;-90
2022/03/23 03:47:20;;;;;;;16.63;10.35;;;;;;;;;;10306176;28;20428;-90
2022/03/23 03:52:22;;;;;;;12.95;9.95;;;;;;;;;;10307385;28;20496;-88
2022/03/23 03:57:26;;;;;;;12.33;9.63;;;;;;;;;;10295351;28;20569;-88
2022/03/23 04:02:27;;;;;;;12.98;8.93;;;;;;;;;;10284469;28;20895;-89
2022/03/23 04:07:32;;;;;;;12.37;9.10;;;;;;;;;;10295932;28;21143;-89
2022/03/23 04:12:36;;;;;;;13.02;9.30;;;;;;;;;;10284308;28;20431;-90
2022/03/23 04:17:38;;;;;;;14.70;9.07;;;;;;;;;;10280899;28;20405;-90
2022/03/23 04:22:40;;;;;;;14.40;9.35;;;;;;;;;;10253526;28;20406;-89
2022/03/23 04:27:47;;;;;;;14.32;9.60;;;;;;;;;;10297663;28;20505;-91
2022/03/23 04:32:52;;;;;;;13.43;9.63;;;;;;;;;;10305924;28;20408;-90
2022/03/23 04:37:53;;;;;;;14.43;9.70;;;;;;;;;;10302772;28;20559;-90
2022/03/23 04:42:58;;;;;;;14.35;9.50;;;;;;;;;;10305943;28;20493;-90
2022/03/23 04:48:00;;;;;;;12.48;9.70;;;;;;;;;;10307571;28;20429;-89
2022/03/23 04:53:02;;;;;;;15.30;10.38;;;;;;;;;;10293080;28;20515;-90
2022/03/23 04:58:05;;;;;;;24.25;10.80;;;;;;;;;;10304235;28;20503;-89
2022/03/23 05:03:07;;;;;;;19.23;11.83;;;;;;;;;;10299992;28;20483;-89
2022/03/23 05:08:09;;;;;;;19.50;11.40;;;;;;;;;;10271225;28;20544;-90
2022/03/23 05:13:15;;;;;;;15.38;10.82;;;;;;;;;;10264058;28;20937;-89
2022/03/23 05:18:17;;;;;;;16.63;11.23;;;;;;;;;;10252348;28;20503;-89
2022/03/23 05:23:19;;;;;;;17.63;11.10;;;;;;;;;;10284680;28;20501;-90
2022/03/23 05:28:22;;;;;;;14.82;10.68;;;;;;;;;;10282434;28;20436;-90
2022/03/23 05:33:24;;;;;;;13.73;10.27;;;;;;;;;;10275015;28;20419;-89
2022/03/23 05:38:26;;;;;;;13.95;10.38;;;;;;;;;;10286942;28;20502;-89
2022/03/23 05:43:29;;;;;;;13.88;9.38;;;;;;;;;;10284037;28;20520;-90
2022/03/23 05:48:34;;;;;;;14.98;9.80;;;;;;;;;;10284491;28;20455;-89
2022/03/23 05:53:36;;;;;;;14.38;9.93;;;;;;;;;;10294575;28;20843;-90
2022/03/23 05:58:39;;;;;;;18.88;9.80;;;;;;;;;;10300983;28;20424;-89
2022/03/23 06:03:42;;;;;;;13.13;9.60;;;;;;;;;;10301874;28;20412;-89
2022/03/23 06:08:44;;;;;;;14.77;10.30;;;;;;;;;;10296873;28;20461;-90
2022/03/23 06:13:47;;;;;;;17.45;10.38;;;;;;;;;;10297145;28;20975;-90
2022/03/23 06:18:49;;;;;;;16.83;9.93;;;;;;;;;;10267069;28;20410;-91
2022/03/23 06:23:51;;;;;;;14.47;10.27;;;;;;;;;;10264407;28;21037;-90
2022/03/23 06:28:55;;;;;;;13.03;9.90;;;;;;;;;;10274160;28;20488;-87
2022/03/23 06:33:57;;;;;;;15.07;10.45;;;;;;;;;;10293315;28;20450;-91
2022/03/23 06:38:59;;;;;;;17.10;10.27;;;;;;;;;;10305092;28;20926;-94
2022/03/23 06:44:02;;;;;;;16.73;10.85;;;;;;;;;;10278532;28;20508;-91
2022/03/23 06:49:22;;;;;;;16.17;11.13;;;;;;;;;;10306342;28;20446;-96
2022/03/23 06:54:25;;;;;;;20.53;12.07;;;;;;;;;;10267263;28;20432;-93
2022/03/23 06:59:28;;;;;;;18.77;11.05;;;;;;;;;;10286152;28;20418;-91
2022/03/23 07:04:30;;;;;;;15.73;10.95;;;;;;;;;;10289873;28;20956;-92
2022/03/23 07:09:32;;;;;;;18.40;11.43;;;;;;;;;;10281193;28;20458;-92
2022/03/23 07:14:38;;;;;;;16.33;11.20;;;;;;;;;;10268167;28;21135;-92
2022/03/23 07:19:39;;;;;;;18.23;11.97;;;;;;;;;;10274632;28;20465;-92
2022/03/23 07:24:41;;;;;;;19.63;11.35;;;;;;;;;;10271159;28;20431;-92
2022/03/23 07:29:45;;;;;;;17.50;11.60;;;;;;;;;;10284836;28;20462;-89
2022/03/23 07:34:46;;;;;;;16.00;10.98;;;;;;;;;;10292212;28;20425;-92
2022/03/23 07:39:49;;;;;;;15.18;10.25;;;;;;;;;;10281099;28;20414;-89
2022/03/23 07:44:52;;;;;;;13.95;9.68;;;;;;;;;;10274375;28;20407;-90
2022/03/23 07:49:54;;;;;;;12.23;8.80;;;;;;;;;;10285529;28;20434;-90
2022/03/23 07:54:56;;;;;;;16.63;9.43;;;;;;;;;;10254387;28;20483;-91
2022/03/23 07:59:59;;;;;;;13.90;8.90;;;;;;;;;;10273620;28;20400;-90
2022/03/23 08:05:02;;;;;;;12.43;8.25;;;;;;;;;;10260361;28;20408;-91
2022/03/23 08:10:05;;;;;;;12.40;8.10;;;;;;;;;;10278811;28;20772;-90
2022/03/23 08:15:10;;;;;;;10.90;7.60;;;;;;;;;;10288009;28;20413;-90
2022/03/23 08:25:33;;;;;;;11.70;7.72;;;;;;;;;;10271275;28;20397;-90
2022/03/23 08:30:37;;;;;;;13.02;7.60;;;;;;;;;;10288701;28;20433;-89
2022/03/23 08:35:40;;;;;;;12.70;7.88;;;;;;;;;;10266739;28;20500;-92
2022/03/23 08:40:42;;;;;;;15.30;8.00;;;;;;;;;;10273824;28;20416;-91
2022/03/23 08:45:45;;;;;;;12.32;7.90;;;;;;;;;;10271431;28;20884;-91
2022/03/23 08:50:49;;;;;;;8.57;7.03;;;;;;;;;;10272041;28;20670;-90
2022/03/23 08:55:51;;;;;;;11.43;8.55;;;;;;;;;;10266320;28;20416;-91
2022/03/23 09:00:54;;;;;;;13.93;7.82;;;;;;;;;;10280377;28;20402;-91
2022/03/23 09:05:56;;;;;;;12.82;8.10;;;;;;;;;;10297300;28;20831;-88
2022/03/23 09:10:59;;;;;;;12.30;8.93;;;;;;;;;;10340813;28;20482;-89
2022/03/23 09:16:03;;;;;;;13.23;8.73;;;;;;;;;;10342068;28;20502;-89
2022/03/23 09:21:05;;;;;;;12.43;8.98;;;;;;;;;;10309901;28;20420;-91
2022/03/23 09:26:09;;;;;;;11.55;8.65;;;;;;;;;;10284675;28;20425;-89
2022/03/23 09:31:13;;;;;;;11.73;8.52;;;;;;;;;;10292274;28;20841;-90
2022/03/23 09:41:41;;;;;;;11.50;8.30;;;;;;;;;;10260675;28;20406;-89
2022/03/23 09:46:44;;;;;;;10.70;7.93;;;;;;;;;;10243259;28;20445;-89
2022/03/23 09:51:47;;;;;;;10.40;8.55;;;;;;;;;;10240058;28;20435;-93
2022/03/23 09:56:49;;;;;;;9.85;8.20;;;;;;;;;;10247044;28;20511;-92
2022/03/23 10:02:37;;;;;;;10.70;8.40;;;;;;;;;;10255565;28;20444;-91
2022/03/23 10:07:48;;;;;;;10.93;8.02;;;;;;;;;;10244163;28;20519;-91
2022/03/23 10:14:13;;;;;;;9.95;7.85;;;;;;;;;;10225954;29;20409;-90
2022/03/23 10:19:16;;;;;;;10.33;7.83;;;;;;;;;;10211840;28;20507;-91
2022/03/23 10:24:32;;;;;;;9.88;7.80;;;;;;;;;;10255221;28;20527;-92
2022/03/23 10:29:44;;;;;;;11.27;8.45;;;;;;;;;;10243565;28;20427;-90
2022/03/23 10:34:52;;;;;;;11.20;7.50;;;;;;;;;;10279252;28;20425;-91
2022/03/23 10:39:56;;;;;;;12.90;7.83;;;;;;;;;;10259715;28;20504;-91
2022/03/23 10:45:10;;;;;;;8.93;7.40;;;;;;;;;;10265256;28;20518;-90
2022/03/23 10:50:18;;;;;;;9.27;7.07;;;;;;;;;;10295507;28;20933;-91
2022/03/23 10:55:21;;;;;;;8.88;6.93;;;;;;;;;;10290743;28;20508;-92
2022/03/23 11:00:29;;;;;;;9.55;6.38;;;;;;;;;;10284115;28;20418;-93
2022/03/23 11:05:33;;;;;;;8.93;6.63;;;;;;;;;;10287396;28;20467;-91
2022/03/23 11:16:02;;;;;;;8.65;6.15;;;;;;;;;;10285564;28;20395;-91
2022/03/23 11:21:08;;;;;;;8.60;6.40;;;;;;;;;;10292388;28;20425;-90
2022/03/23 11:26:12;;;;;;;7.05;6.25;;;;;;;;;;10286756;28;20829;-90
2022/03/23 11:31:16;;;;;;;11.90;6.20;;;;;;;;;;10265469;28;20427;-90
2022/03/23 11:36:28;;;;;;;6.78;6.10;;;;;;;;;;10299051;28;20415;-89
2022/03/23 11:41:30;;;;;;;7.85;5.95;;;;;;;;;;10286127;28;20429;-89
2022/03/23 11:46:32;;;;;;;8.15;5.43;;;;;;;;;;10284316;28;20756;-90
2022/03/23 11:51:56;;;;;;;7.47;6.00;;;;;;;;;;10297638;28;20437;-91
2022/03/23 11:56:58;;;;;;;9.00;6.22;;;;;;;;;;10279874;28;20457;-92
2022/03/23 12:02:00;;;;;;;9.18;6.22;;;;;;;;;;10282256;28;20420;-91
2022/03/23 12:07:08;;;;;;;11.32;6.50;;;;;;;;;;10277348;28;22205;-90
2022/03/23 12:12:13;;;;;;;10.07;6.30;;;;;;;;;;10283627;28;20510;-77
2022/03/23 12:17:28;;;;;;;12.25;6.38;;;;;;;;;;10278292;28;20418;-91
2022/03/23 12:23:05;;;;;;;10.63;6.10;;;;;;;;;;10279795;28;20445;-89
2022/03/23 12:28:26;;;;;;;8.75;6.57;;;;;;;;;;10259859;28;20427;-88
2022/03/23 12:33:29;;;;;;;7.38;5.70;;;;;;;;;;10268261;28;20972;-92
2022/03/23 12:38:36;;;;;;;9.18;6.30;;;;;;;;;;10276184;28;20427;-92
2022/03/23 12:43:42;;;;;;;8.35;6.00;;;;;;;;;;10281655;28;20452;-92
2022/03/23 12:59:48;;;;;;;7.78;6.00;;;;;;;;;;10268909;28;20408;-91
2022/03/23 13:04:52;;;;;;;8.63;5.97;;;;;;;;;;10263313;28;20453;-91
2022/03/23 13:09:56;;;;;;;8.82;5.70;;;;;;;;;;10271022;28;20454;-93
2022/03/23 13:14:59;;;;;;;6.60;5.77;;;;;;;;;;10277583;28;20904;-92
2022/03/23 13:20:02;;;;;;;8.55;6.00;;;;;;;;;;10278385;28;20431;-91
2022/03/23 13:25:08;;;;;;;6.43;5.60;;;;;;;;;;10288105;28;20414;-92
2022/03/23 13:30:13;;;;;;;6.30;5.70;;;;;;;;;;10275835;28;20906;-94
2022/03/23 13:35:17;;;;;;;6.07;5.33;;;;;;;;;;10261052;28;20418;-87
2022/03/23 13:40:21;;;;;;;7.87;5.60;;;;;;;;;;10285008;28;20433;-86
2022/03/23 13:45:26;;;;;;;7.63;5.43;;;;;;;;;;10283969;28;20763;-88
2022/03/23 13:50:29;;;;;;;6.87;5.90;;;;;;;;;;10279674;28;20441;-87
2022/03/23 13:55:32;;;;;;;5.97;5.30;;;;;;;;;;10269122;28;20442;-87
2022/03/23 14:00:35;;;;;;;7.93;6.00;;;;;;;;;;10273028;28;20790;-88
2022/03/23 14:05:38;;;;;;;6.63;5.93;;;;;;;;;;10241866;28;20912;-87
2022/03/23 14:10:42;;;;;;;9.00;6.32;;;;;;;;;;10276658;28;20413;-87
2022/03/23 14:15:51;;;;;;;6.40;5.53;;;;;;;;;;10274406;28;20419;-87
2022/03/23 14:20:54;;;;;;;7.20;5.70;;;;;;;;;;10275144;28;20529;-87
2022/03/23 14:25:58;;;;;;;7.53;5.82;;;;;;;;;;10292796;28;20457;-87
2022/03/23 14:31:00;;;;;;;7.90;6.47;;;;;;;;;;10289912;28;20408;-88
2022/03/23 14:36:06;;;;;;;7.85;6.20;;;;;;;;;;10298815;28;20421;-88
2022/03/23 14:41:10;;;;;;;7.25;5.93;;;;;;;;;;10298797;28;20441;-88
2022/03/23 14:46:23;;;;;;;7.67;6.27;;;;;;;;;;10290466;28;20427;-87
2022/03/23 14:51:25;;;;;;;7.82;5.90;;;;;;;;;;10290778;28;20464;-87
2022/03/23 14:56:28;;;;;;;7.77;5.80;;;;;;;;;;10267131;28;20416;-87
2022/03/23 15:01:30;;;;;;;7.23;5.90;;;;;;;;;;10274739;28;20440;-87
2022/03/23 15:17:16;;;;;;;7.00;6.30;;;;;;;;;;10288524;28;20410;-87
2022/03/23 15:22:18;;;;;;;8.63;6.18;;;;;;;;;;10307436;28;20445;-86
2022/03/23 15:27:21;;;;;;;7.67;6.30;;;;;;;;;;10301049;28;20461;-85
2022/03/23 15:32:23;;;;;;;8.20;6.40;;;;;;;;;;10295512;28;20485;-89
2022/03/23 15:37:25;;;;;;;9.43;6.40;;;;;;;;;;10289897;28;20519;-90
2022/03/23 15:47:48;;;;;;;6.95;6.07;;;;;;;;;;10274979;28;20416;-96
2022/03/23 15:52:53;;;;;;;8.75;6.50;;;;;;;;;;10296146;28;20412;-96
2022/03/23 15:58:02;;;;;;;8.80;6.20;;;;;;;;;;10324698;28;20422;-95
2022/03/23 16:03:09;;;;;;;7.57;6.60;;;;;;;;;;10300272;28;20463;-96
2022/03/23 16:08:12;;;;;;;7.93;6.63;;;;;;;;;;10300002;28;20918;-95
2022/03/23 16:13:19;;;;;;;9.65;6.65;;;;;;;;;;10293485;28;20417;-96
2022/03/23 16:18:22;;;;;;;7.97;6.68;;;;;;;;;;10290007;28;20430;-96
2022/03/23 16:23:24;;;;;;;9.07;6.45;;;;;;;;;;10295973;28;20410;-95
2022/03/23 16:28:30;;;;;;;10.05;6.45;;;;;;;;;;10281400;28;20845;-96
2022/03/23 16:33:32;;;;;;;10.07;6.20;;;;;;;;;;10321670;28;20420;-94
2022/03/23 16:38:35;;;;;;;7.43;6.53;;;;;;;;;;10318202;28;20442;-94
2022/03/23 16:43:40;;;;;;;10.15;7.35;;;;;;;;;;10323547;28;20676;-95
2022/03/23 16:48:42;;;;;;;10.07;7.88;;;;;;;;;;10324400;28;20478;-94
2022/03/23 16:53:44;;;;;;;13.98;8.32;;;;;;;;;;10305731;28;20438;-95
2022/03/23 16:58:51;;;;;;;11.53;8.30;;;;;;;;;;10287776;28;20955;-94
2022/03/23 17:14:56;;;;;;;11.80;7.97;;;;;;;;;;10305367;28;20390;-83
2022/03/23 17:19:59;;;;;;;13.70;8.27;;;;;;;;;;10270692;28;20434;-91
2022/03/23 17:25:01;;;;;;;11.13;8.45;;;;;;;;;;10278285;28;20442;-92
2022/03/23 17:30:07;;;;;;;15.20;8.90;;;;;;;;;;10285738;28;20504;-94
2022/03/23 17:35:10;;;;;;;13.40;9.63;;;;;;;;;;10284296;28;20428;-94
2022/03/23 17:40:13;;;;;;;13.25;9.38;;;;;;;;;;10276814;28;20440;-96
2022/03/23 17:45:17;;;;;;;13.68;9.98;;;;;;;;;;10255859;28;20935;-95
2022/03/23 17:50:19;;;;;;;15.67;11.13;;;;;;;;;;10253911;28;20487;-95
2022/03/23 17:55:22;;;;;;;15.80;11.85;;;;;;;;;;10250060;28;20914;-96
2022/03/23 18:00:25;;;;;;;15.77;11.80;;;;;;;;;;10231500;28;20496;-95
2022/03/23 18:05:28;;;;;;;17.13;12.18;;;;;;;;;;10248302;28;20422;-96
2022/03/23 18:10:30;;;;;;;17.77;12.90;;;;;;;;;;10243557;28;20503;-96
2022/03/23 18:15:34;;;;;;;19.00;12.57;;;;;;;;;;10245747;28;20775;-94
2022/03/23 18:20:36;;;;;;;20.45;14.43;;;;;;;;;;10227744;28;20442;-94
2022/03/23 18:25:38;;;;;;;39.25;22.15;;;;;;;;;;10230131;28;21063;-95
2022/03/23 18:30:43;;;;;;;40.90;25.67;;;;;;;;;;10236304;28;20417;-94
2022/03/23 18:35:52;;;;;;;88.63;43.97;;;;;;;;;;10217307;28;20418;-96
2022/03/23 18:40:56;;;;;;;60.03;32.70;;;;;;;;;;10253055;28;20442;-96
2022/03/23 18:46:03;;;;;;;66.65;33.90;;;;;;;;;;10262283;28;20436;-95
2022/03/23 18:51:08;;;;;;;46.30;25.37;;;;;;;;;;10262419;28;20415;-83
2022/03/23 18:56:10;;;;;;;36.83;22.98;;;;;;;;;;10266189;28;20516;-93
2022/03/23 19:01:16;;;;;;;38.78;23.00;;;;;;;;;;10252543;28;20454;-95
2022/03/23 19:06:18;;;;;;;35.13;19.88;;;;;;;;;;10237839;28;20430;-93
2022/03/23 19:11:20;;;;;;;39.40;24.85;;;;;;;;;;10248988;28;20416;-93
2022/03/23 19:16:23;;;;;;;40.07;23.43;;;;;;;;;;10283017;28;20418;-93
2022/03/23 19:21:25;;;;;;;33.97;22.27;;;;;;;;;;10265372;28;20517;-95
2022/03/23 19:26:27;;;;;;;28.63;19.35;;;;;;;;;;10276130;28;20464;-93
2022/03/23 19:31:31;;;;;;;31.90;20.57;;;;;;;;;;10271034;28;20435;-94
2022/03/23 19:36:33;;;;;;;32.17;20.92;;;;;;;;;;10275863;28;21399;-95
2022/03/23 19:41:41;;;;;;;39.07;23.27;;;;;;;;;;10276256;28;20444;-95
2022/03/23 19:46:45;;;;;;;32.77;24.70;;;;;;;;;;10264021;28;20432;-95
2022/03/23 19:51:48;;;;;;;35.20;24.80;;;;;;;;;;10274043;28;20424;-94
2022/03/23 19:56:52;;;;;;;35.17;25.52;;;;;;;;;;10263228;28;20450;-94
2022/03/23 20:01:56;;;;;;;38.75;25.90;;;;;;;;;;10280536;28;20439;-94
2022/03/23 20:06:58;;;;;;;35.88;23.05;;;;;;;;;;10269230;28;20906;-94
2022/03/23 20:12:01;;;;;;;32.90;24.15;;;;;;;;;;10272774;28;20509;-96
2022/03/23 20:17:05;;;;;;;34.25;25.55;;;;;;;;;;10269049;28;20452;-95
2022/03/23 20:22:07;;;;;;;37.15;26.40;;;;;;;;;;10264297;28;20441;-95
2022/03/23 20:27:11;;;;;;;39.20;26.45;;;;;;;;;;10271457;28;20428;-93
2022/03/23 20:32:15;;;;;;;37.58;27.27;;;;;;;;;;10264735;28;20496;-94
2022/03/23 20:37:17;;;;;;;41.05;29.27;;;;;;;;;;10271950;28;20418;-94
2022/03/23 20:42:19;;;;;;;40.42;30.05;;;;;;;;;;10274669;28;20591;-93
2022/03/23 20:47:23;;;;;;;44.10;32.15;;;;;;;;;;10301204;28;20402;-93
2022/03/23 20:52:25;;;;;;;42.30;30.98;;;;;;;;;;10278027;28;20436;-94
2022/03/23 20:57:27;;;;;;;42.10;31.15;;;;;;;;;;10269625;28;20463;-93
2022/03/23 21:02:32;;;;;;;42.80;30.10;;;;;;;;;;10277596;28;20421;-96
2022/03/23 21:07:39;;;;;;;38.55;29.90;;;;;;;;;;10272821;28;20428;-94
2022/03/23 21:12:41;;;;;;;35.77;29.00;;;;;;;;;;10278597;28;20454;-94
2022/03/23 21:17:45;;;;;;;40.00;28.93;;;;;;;;;;10275678;28;20420;-94
2022/03/23 21:22:47;;;;;;;37.33;28.20;;;;;;;;;;10270258;28;20513;-96
2022/03/23 21:27:51;;;;;;;37.73;28.37;;;;;;;;;;10289028;28;20548;-87
2022/03/23 21:32:55;;;;;;;37.13;28.60;;;;;;;;;;10275404;28;20774;-96
2022/03/23 21:37:57;;;;;;;37.63;28.70;;;;;;;;;;10275683;28;20447;-96
2022/03/23 21:43:00;;;;;;;37.65;28.60;;;;;;;;;;10291119;28;20443;-95
2022/03/23 21:48:06;;;;;;;37.88;29.27;;;;;;;;;;10295983;28;20422;-94
2022/03/23 21:53:08;;;;;;;38.78;28.90;;;;;;;;;;10317275;28;20426;-94
2022/03/23 21:58:11;;;;;;;40.00;28.25;;;;;;;;;;10328979;28;20419;-94
2022/03/23 22:03:15;;;;;;;40.05;28.15;;;;;;;;;;10315957;28;20773;-94
2022/03/23 22:08:17;;;;;;;36.50;27.45;;;;;;;;;;10272966;28;20451;-94
2022/03/23 22:13:19;;;;;;;35.00;26.77;;;;;;;;;;10260896;28;20525;-94
2022/03/23 22:18:23;;;;;;;36.13;25.33;;;;;;;;;;10295773;28;20521;-96
2022/03/23 22:23:26;;;;;;;34.35;25.73;;;;;;;;;;10289037;28;20432;-95
2022/03/23 22:28:30;;;;;;;34.20;25.20;;;;;;;;;;10277511;28;20424;-93
2022/03/23 22:33:33;;;;;;;31.92;24.90;;;;;;;;;;10277852;28;20428;-95
2022/03/23 22:38:37;;;;;;;34.23;25.10;;;;;;;;;;10302256;28;20436;-94
2022/03/23 22:43:39;;;;;;;38.73;27.47;;;;;;;;;;10288180;28;20419;-94
2022/03/23 22:48:43;;;;;;;39.45;28.13;;;;;;;;;;10294062;28;20423;-94
2022/03/23 22:53:46;;;;;;;42.53;31.00;;;;;;;;;;10286050;28;20418;-94
2022/03/23 22:58:47;;;;;;;40.40;30.65;;;;;;;;;;10281160;28;20446;-95
2022/03/23 23:03:57;;;;;;;41.73;30.80;;;;;;;;;;10281702;28;20489;-94
2022/03/23 23:09:02;;;;;;;40.67;30.55;;;;;;;;;;10297940;28;20423;-95
2022/03/23 23:14:07;;;;;;;40.10;29.23;;;;;;;;;;10291643;28;20552;-94
2022/03/23 23:19:10;;;;;;;42.67;29.95;;;;;;;;;;10303445;28;20421;-94
2022/03/23 23:24:12;;;;;;;38.60;28.20;;;;;;;;;;10286934;28;20448;-94
2022/03/23 23:29:35;;;;;;;39.80;28.58;;;;;;;;;;10279279;28;20467;-95
2022/03/23 23:34:39;;;;;;;38.60;27.57;;;;;;;;;;10302408;28;20485;-95
2022/03/23 23:39:41;;;;;;;38.13;28.05;;;;;;;;;;10297303;28;20418;-96
2022/03/23 23:44:43;;;;;;;35.88;26.83;;;;;;;;;;10275456;28;20894;-95
2022/03/23 23:49:47;;;;;;;40.40;27.40;;;;;;;;;;10301059;28;20419;-95
2022/03/23 23:54:50;;;;;;;36.47;26.52;;;;;;;;;;10299723;28;20406;-94
2022/03/23 23:59:52;;;;;;;34.17;26.40;;;;;;;;;;10292873;28;20511;-92
